Flight Track Log - Related Links

Times and Time Zones

All times are in EDT time to prevent confusion due to time zone crossing. See the ASQ5958 flight status page for this flight to view local times or setup timezone preferences in your user account.

Time Position Orientation Groundspeed Altitude Reporting Facility
EDT Latitude Longitude Course Direction KTS MPH feet Rate Location/Type
Thu 07:35:09 PM 40.5131 -80.3483 288° West 212 244 3,400  Level Cleveland Center
Thu 07:36:09 PM 40.5319 -80.4356 286° West 269 310 5,200 2,350 Climbing Cleveland Center
Thu 07:37:09 PM 40.5528 -80.5256 287° West 280 322 8,100 2,800 Climbing Cleveland Center
Thu 07:38:09 PM 40.5736 -80.6214 286° West 273 314 10,800 1,850 Climbing Cleveland Center
Thu 07:39:09 PM 40.5967 -80.7336 285° West 287 330 11,800 1,150 Climbing Cleveland Center
Thu 07:40:00 PM 40.6478 -80.9910 288° West  Level FlightAware Approximate
Thu 07:40:09 PM 40.6233 -80.8539 286° West 323 372 13,100  Level Cleveland Center
Thu 07:41:09 PM 40.6503 -80.9828 285° West 345 397 14,500 1,500 Climbing Cleveland Center
Thu 07:42:09 PM 40.6747 -81.1169 284° West 378 435 16,100 1,600 Climbing Cleveland Center
Thu 07:43:09 PM 40.7031 -81.2458 286° West 373 429 17,700 1,700 Climbing Cleveland Center
Thu 07:44:09 PM 40.7294 -81.3750 285° West 373 429 19,500 1,700 Climbing Cleveland Center
Thu 07:45:09 PM 40.7786 -81.4961 298° West 373 429 21,100 1,600 Climbing Cleveland Center
Thu 07:46:09 PM 40.8317 -81.6286 298° West 373 429 22,700 1,600 Climbing Cleveland Center
Thu 07:47:09 PM 40.8469 -81.7578 279° West 360 414 24,300 1,600 Climbing Cleveland Center
Thu 07:48:09 PM 40.8644 -81.8844 280° West 355 409 25,900 1,600 Climbing Cleveland Center
Thu 07:49:09 PM 40.8794 -82.0083 279° West 355 409 27,500 1,600 Climbing Cleveland Center
Thu 07:50:09 PM 40.8967 -82.1269 281° West 355 409 29,100 1,550 Climbing Cleveland Center
Thu 07:51:09 PM 40.9097 -82.2481 278° West 339 390 30,600 1,250 Climbing Cleveland Center
Thu 07:52:09 PM 40.9247 -82.3528 281° West 334 384 31,600 1,100 Climbing Cleveland Center
Thu 07:53:09 PM 40.9397 -82.4686 280° West 334 384 32,800 1,000 Climbing Cleveland Center
Thu 07:54:09 PM 40.9564 -82.5903 280° West 334 384 33,600 600 Climbing Cleveland Center
Thu 07:55:09 PM 40.9728 -82.7144 280° West 334 384 34,000 200 Climbing Cleveland Center
Thu 07:56:09 PM 40.9889 -82.8497 279° West 356 410 34,000 450 Level Cleveland Center
Thu 07:57:09 PM 41.0067 -83.0017 279° West 378 435 34,900 1,000 Climbing Cleveland Center
Thu 07:58:09 PM 41.0244 -83.1372 280° West 378 435 36,000 550 Climbing Cleveland Center
Thu 07:59:09 PM 41.0444 -83.2675 282° West 366 421 36,000  Level Cleveland Center
Thu 08:00:09 PM 41.0619 -83.4142 279° West 386 444 36,000  Level Cleveland Center
Thu 08:01:09 PM 41.0792 -83.5528 279° West 396 456 36,000  Level Cleveland Center
Thu 08:02:09 PM 41.0900 -83.6908 276° West 389 448 36,000  Level Cleveland Center
Thu 08:03:09 PM 41.1069 -83.8297 279° West 389 448 36,000  Level Cleveland Center
Thu 08:04:09 PM 41.1261 -83.9656 281° West 389 448 36,000  Level Cleveland Center
Thu 08:05:55 PM 41.1550 -84.2069 279° West 381 438 36,000  Level Chicago Center
Thu 08:06:57 PM 41.1703 -84.3439 278° West 378 435 36,000  Level Chicago Center
Thu 08:07:59 PM 41.1853 -84.4814 278° West 378 435 36,000  Level Chicago Center
Thu 08:09:01 PM 41.2003 -84.6189 278° West 377 434 36,000  Level Chicago Center
Thu 08:10:03 PM 41.2153 -84.7558 278° West 376 433 36,000  Level Chicago Center
Thu 08:11:05 PM 41.2297 -84.8931 278° West 377 434 36,000  Level Chicago Center
Thu 08:12:07 PM 41.2461 -85.0581 278° West 375 432 36,000  Level Chicago Center
Thu 08:13:10 PM 41.2611 -85.1961 278° West 375 432 36,000  Level Chicago Center
Thu 08:14:12 PM 41.2761 -85.3333 278° West 375 432 36,000  Level Chicago Center
Thu 08:15:14 PM 41.2892 -85.4731 277° West 377 434 36,000  Level Chicago Center
Thu 08:16:16 PM 41.3044 -85.6133 278° West 381 438 36,000  Level Chicago Center
Thu 08:17:18 PM 41.3183 -85.7522 278° West 379 436 36,000  Level Chicago Center
Thu 08:18:20 PM 41.3319 -85.8911 277° West 378 435 36,000  Level Chicago Center
Thu 08:19:22 PM 41.3478 -86.0575 277° West 378 435 36,000  Level Chicago Center
Thu 08:20:24 PM 41.3619 -86.1967 278° West 379 436 36,000  Level Chicago Center
Thu 08:21:26 PM 41.3750 -86.3358 277° West 378 435 36,000  Level Chicago Center
Thu 08:22:28 PM 41.3886 -86.4761 277° West 381 438 36,000  Level Chicago Center
Thu 08:23:30 PM 41.4017 -86.6161 277° West 382 440 36,000  Level Chicago Center
Thu 08:24:32 PM 41.4158 -86.7783 277° West 383 441 36,000  Level Chicago Center
Thu 08:25:34 PM 41.4289 -86.9181 277° West 382 440 36,000  Level Chicago Center
Thu 08:26:36 PM 41.4411 -87.0606 277° West 388 447 36,000  Level Chicago Center
Thu 08:27:38 PM 41.4539 -87.2008 277° West 383 441 36,000 290 Level Chicago Center
Thu 08:28:40 PM 41.4667 -87.3411 277° West 384 442 36,600 484 Climbing Chicago Center
Thu 08:29:42 PM 41.4800 -87.5006 276° West 366 421 37,000 194 Climbing Chicago Center
Thu 08:30:44 PM 41.4911 -87.6328 276° West 362 417 37,000  Level Chicago Center
Thu 08:31:46 PM 41.5022 -87.7681 276° West 369 425 37,000  Level Chicago Center
Thu 08:32:48 PM 41.5128 -87.9067 276° West 379 436 37,000  Level Chicago Center
Thu 08:33:50 PM 41.5247 -88.0550 276° West 389 448 37,000  Level Chicago Center
Thu 08:34:52 PM 41.5378 -88.2139 276° West 392 451 37,000  Level Chicago Center
Thu 08:35:54 PM 41.5475 -88.3583 275° West 396 456 37,000  Level Chicago Center
Thu 08:36:56 PM 41.5472 -88.4947 270° West 376 433 37,000 -48 Level Chicago Center
Thu 08:37:58 PM 41.5472 -88.6606 270° West 376 433 36,900 -484 Descending Chicago Center
Thu 08:39:00 PM 41.5483 -88.8011 271° West 380 437 36,000 -435 Descending Chicago Center
Thu 08:40:02 PM 41.5478 -88.9447 270° West 390 449 36,000  Level Chicago Center
Thu 08:41:04 PM 41.5469 -89.0931 270° West 401 461 36,000  Level Chicago Center
Thu 08:42:07 PM 41.5475 -89.2444 270° West 407 468 36,000  Level Chicago Center
Thu 08:43:09 PM 41.5469 -89.4219 270° West 403 464 36,000  Level Chicago Center
Thu 08:44:11 PM 41.5475 -89.5492 270° West 380 437 36,000  Level Chicago Center
Thu 08:45:13 PM 41.5469 -89.6811 270° West 363 418 36,000  Level Chicago Center
Thu 08:46:15 PM 41.5456 -89.8108 269° West 356 410 36,000  Level Chicago Center
Thu 08:47:17 PM 41.5444 -89.9322 269° West 338 389 36,000  Level Chicago Center
Thu 08:48:19 PM 41.5447 -90.0700 270° West 317 365 36,000  Level Chicago Center
Thu 08:49:21 PM 41.5439 -90.1958 270° West 333 383 36,000  Level Chicago Center
Thu 08:50:23 PM 41.5425 -90.3303 269° West 356 410 36,000  Level Chicago Center
Thu 08:51:26 PM 41.5400 -90.4700 269° West 370 426 36,000  Level Chicago Center
Thu 08:52:28 PM 41.5386 -90.6172 269° West 381 438 36,000  Level Chicago Center
Thu 08:53:30 PM 41.5350 -90.7692 268° West 401 461 36,000  Level Chicago Center
Thu 08:54:32 PM 41.5325 -90.9486 269° West 406 467 36,000  Level Chicago Center
Thu 08:55:34 PM 41.5292 -91.0925 268° West 390 449 36,000  Level Chicago Center
Thu 08:56:36 PM 41.5272 -91.2261 269° West 365 420 36,000  Level Chicago Center
Thu 08:57:38 PM 41.5244 -91.3575 268° West 359 413 36,000  Level Chicago Center
Thu 08:58:40 PM 41.5214 -91.4942 268° West 369 425 36,000  Level Chicago Center
Thu 08:59:42 PM 41.5181 -91.6639 269° West 383 441 36,000  Level Chicago Center
Thu 09:00:44 PM 41.5128 -91.8014 267° West 379 436 36,000  Level Chicago Center
Thu 09:01:46 PM 41.5086 -91.9358 268° West 370 426 36,000  Level Chicago Center
Thu 09:02:48 PM 41.5044 -92.0661 268° West 360 414 36,000  Level Chicago Center
Thu 09:03:50 PM 41.4983 -92.1953 266° West 355 409 36,000  Level Chicago Center
Thu 09:04:52 PM 41.4947 -92.3281 268° West 356 410 36,000  Level Chicago Center
Thu 09:05:54 PM 41.4892 -92.4628 267° West 331 381 36,000  Level Chicago Center
Thu 09:06:56 PM 41.4842 -92.5819 267° West 325 374 36,000  Level Chicago Center
Thu 09:07:38 PM 41.4811 -92.6803 268° West 326 375 36,000  Level Minneapolis Center
Thu 09:08:40 PM 41.4753 -92.8028 266° West 330 380 36,000  Level Minneapolis Center
Thu 09:09:42 PM 41.4700 -92.9283 267° West 337 388 36,000  Level Minneapolis Center
Thu 09:10:44 PM 41.4647 -93.0569 267° West 346 398 36,000  Level Minneapolis Center
Thu 09:11:46 PM 41.4572 -93.2161 266° West 356 410 36,000  Level Minneapolis Center
Thu 09:12:48 PM 41.4511 -93.3511 267° West 365 420 36,000  Level Minneapolis Center
Thu 09:13:50 PM 41.4447 -93.4858 266° West 368 423 36,000  Level Minneapolis Center
Thu 09:14:52 PM 41.4392 -93.6225 267° West 370 426 36,000  Level Minneapolis Center
Thu 09:15:54 PM 41.4519 -93.7694 277° West 396 456 36,000  Level Minneapolis Center
Thu 09:16:56 PM 41.4703 -93.9169 279° West 405 466 36,000  Level Minneapolis Center
Thu 09:17:58 PM 41.4906 -94.0958 279° West 409 471 36,000  Level Minneapolis Center
Thu 09:19:02 PM 41.5089 -94.2603 279° West 411 473 36,000  Level Minneapolis Center
Thu 09:20:04 PM 41.5269 -94.4111 279° West 411 473 36,000  Level Minneapolis Center
Thu 09:21:06 PM 41.5436 -94.5633 278° West 414 476 36,000  Level Minneapolis Center
Thu 09:22:07 PM 41.5558 -94.6842 278° West 413 475 36,000  Level Minneapolis Center
Thu 09:23:09 PM 41.5767 -94.8639 279° West 410 472 36,000  Level Minneapolis Center
Thu 09:24:11 PM 41.5919 -95.0131 278° West 408 470 36,000  Level Minneapolis Center
Thu 09:25:13 PM 41.6108 -95.1933 278° West 409 471 36,000  Level Minneapolis Center
Thu 09:26:15 PM 41.6256 -95.3431 278° West 407 468 36,000  Level Minneapolis Center
Thu 09:27:17 PM 41.6422 -95.4919 279° West 407 468 36,000  Level Minneapolis Center
Thu 09:28:19 PM 41.6564 -95.6489 277° West 407 468 36,000  Level Minneapolis Center
Thu 09:29:21 PM 41.6708 -95.7897 278° West 406 467 36,000  Level Minneapolis Center
Thu 09:30:23 PM 41.6858 -95.9386 278° West 407 468 36,000  Level Minneapolis Center
Thu 09:31:25 PM 41.7033 -96.1169 278° West 409 471 36,000  Level Minneapolis Center
Thu 09:32:26 PM 41.7178 -96.2675 277° West 412 474 36,000  Level Minneapolis Center
Thu 09:33:28 PM 41.7319 -96.4178 277° West 410 472 36,000  Level Minneapolis Center
Thu 09:34:30 PM 41.7456 -96.5667 277° West 405 466 36,000  Level Minneapolis Center
Thu 09:35:32 PM 41.7592 -96.7178 277° West 409 471 36,000  Level Minneapolis Center
Thu 09:36:34 PM 41.7753 -96.8969 277° West 406 467 36,000  Level Minneapolis Center
Thu 09:37:36 PM 41.7878 -97.0447 277° West 403 464 36,000  Level Minneapolis Center
Thu 09:38:38 PM 41.8006 -97.1856 277° West 387 445 36,000  Level Minneapolis Center
Thu 09:39:40 PM 41.8128 -97.3258 277° West 381 438 36,000  Level Minneapolis Center
Thu 09:40:42 PM 41.8253 -97.4672 277° West 382 440 36,000  Level Minneapolis Center
Thu 09:41:43 PM 41.8361 -97.6144 276° West 392 451 36,000  Level Minneapolis Center
Thu 09:42:45 PM 41.8497 -97.7664 277° West 406 467 36,000  Level Minneapolis Center
Thu 09:43:47 PM 41.8642 -97.9483 276° West 410 472 36,000  Level Minneapolis Center
Thu 09:44:49 PM 41.8761 -98.0944 276° West 400 460 36,000  Level Minneapolis Center
Thu 09:45:50 PM 41.8864 -98.2236 276° West 390 449 36,000  Level Minneapolis Center
Thu 09:46:52 PM 41.8997 -98.3919 276° West 381 438 36,000  Level Minneapolis Center
Thu 09:47:54 PM 41.8892 -98.5336 264° West 388 447 36,000  Level Minneapolis Center
Thu 09:48:56 PM 41.8669 -98.6811 259° West 400 460 36,000  Level Minneapolis Center
Thu 09:49:58 PM 41.8433 -98.8286 258° West 404 465 36,000  Level Minneapolis Center
Thu 09:50:59 PM 41.8203 -98.9781 258° West 410 472 36,000  Level Minneapolis Center
Thu 09:52:01 PM 41.7969 -99.1231 258° West 404 465 36,000  Level Minneapolis Center
Thu 09:52:59 PM 41.7736 -99.2631 257° West 388 447 36,000  Level Denver Center
Thu 09:54:01 PM 41.7517 -99.4022 258° West 385 443 36,000  Level Denver Center
Thu 09:55:03 PM 41.7292 -99.5389 258° West 379 436 36,000  Level Denver Center
Thu 09:56:05 PM 41.7025 -99.7078 258° West 384 442 36,000  Level Denver Center
Thu 09:57:07 PM 41.6761 -99.8586 257° West 395 455 36,000  Level Denver Center
Thu 09:58:09 PM 41.6528 -100.0031 258° West 409 471 36,000  Level Denver Center
Thu 09:59:11 PM 41.6258 -100.1661 258° West 408 470 36,000  Level Denver Center
Thu 10:00:13 PM 41.6036 -100.2967 257° West 386 444 36,000  Level Denver Center
Thu 10:01:15 PM 41.5764 -100.4475 256° West 378 435 36,000  Level Denver Center
Thu 10:02:17 PM 41.5547 -100.5778 258° West 378 435 36,000  Level Denver Center
Thu 10:03:19 PM 41.5269 -100.7311 256° West 381 438 36,000  Level Denver Center
Thu 10:04:21 PM 41.4897 -100.8575 249° West 385 443 36,000  Level Denver Center
Thu 10:05:23 PM 41.4439 -101.0075 248° West 391 450 36,000  Level Denver Center
Thu 10:06:25 PM 41.4022 -101.1328 246° West 390 449 36,000  Level Denver Center
Thu 10:07:27 PM 41.3492 -101.2822 245° Southwest 398 458 36,000  Level Denver Center
Thu 10:08:29 PM 41.3047 -101.4117 245° Southwest 402 463 36,000 -532 Level Denver Center
Thu 10:09:31 PM 41.2586 -101.5417 245° Southwest 406 467 34,900 -968 Descending Denver Center
Thu 10:10:33 PM 41.2067 -101.6917 245° Southwest 404 465 34,000 -435 Descending Denver Center
Thu 10:11:35 PM 41.1611 -101.8217 245° Southwest 406 467 34,000  Level Denver Center
Thu 10:12:37 PM 41.1075 -101.9747 245° Southwest 410 472 34,000  Level Denver Center
Thu 10:13:39 PM 41.0603 -102.1092 245° Southwest 418 481 34,000  Level Denver Center
Thu 10:14:41 PM 41.0033 -102.2647 244° Southwest 420 483 34,000  Level Denver Center
Thu 10:15:43 PM 40.9542 -102.3972 244° Southwest 419 482 34,000  Level Denver Center
Thu 10:16:45 PM 40.8983 -102.5503 244° Southwest 417 480 34,000  Level Denver Center
Thu 10:17:46 PM 40.8519 -102.6808 245° Southwest 412 474 34,000  Level Denver Center
Thu 10:18:48 PM 40.7956 -102.8308 244° Southwest 409 471 34,000  Level Denver Center
Thu 10:19:50 PM 40.7483 -102.9578 244° Southwest 403 464 34,000  Level Denver Center
Thu 10:20:52 PM 40.7000 -103.0897 244° Southwest 401 461 34,000  Level Denver Center
Thu 10:21:54 PM 40.6506 -103.2233 244° Southwest 403 464 34,000 -488 Level Denver Center
Thu 10:22:55 PM 40.5986 -103.3617 244° Southwest 415 478 33,000 -1,902 Descending Denver Center
Thu 10:23:57 PM 40.5403 -103.5183 244° Southwest 404 465 30,100 -2,419 Descending Denver Center
Thu 10:24:59 PM 40.4919 -103.6486 244° Southwest 394 453 28,000 -2,081 Descending Denver Center
Thu 10:26:01 PM 40.4433 -103.7786 244° Southwest 395 455 25,800 -2,195 Descending Denver Center
Thu 10:27:02 PM 40.3972 -103.9014 244° Southwest 367 422 23,500 -2,000 Descending Denver Center
Thu 10:28:04 PM 40.3511 -104.0111 241° Southwest 345 397 21,700 -1,935 Descending Denver Center
Thu 10:29:06 PM 40.2681 -104.1011 220° Southwest 358 412 19,500 -2,129 Descending Denver Center
Thu 10:30:08 PM 40.1942 -104.1803 219° Southwest 346 398 17,300 -2,000 Descending Denver Center
Thu 10:31:09 PM 40.1319 -104.2664 227° Southwest 323 372 15,400 -1,707 Descending Denver Center
Thu 10:32:11 PM 40.0736 -104.3533 229° Southwest 292 336 13,800 -1,412 Descending Denver Center
Thu 10:32:51 PM 40.0333 -104.4000 222° Southwest 273 314 13,000 -679 Descending Denver TRACON
Thu 10:33:57 PM 39.9833 -104.4833 232° Southwest 243 280 12,600 -800 Descending Denver TRACON
Thu 10:34:51 PM 39.9500 -104.5500 237° Southwest 254 292 11,400 -889 Descending Denver TRACON
Thu 10:35:45 PM 39.9500 -104.6167 270° West 226 260 11,000 -276 Descending Denver TRACON
Thu 10:36:18 PM 39.9469 -104.6569 264° West 227 261 11,000  Level Denver Center
Thu 10:37:20 PM 39.9508 -104.7483 273° West 237 273 11,000 -242 Level Denver Center
Thu 10:38:22 PM 39.9553 -104.8314 274° West 232 267 10,500 -537 Descending Denver Center
Thu 10:39:23 PM 39.9353 -104.9061 251° West 235 270 9,900 -683 Descending Denver Center
Thu 10:40:25 PM 39.8719 -104.9042 179° South 228 262 9,100 -1,306 Descending Denver Center
Thu 10:41:27 PM 39.8422 -104.8533 127° Southeast 202 232 7,200 -1,210 Descending Denver Center
Thu 10:42:29 PM 39.8414 -104.7975 91° East 162 186 6,600 -732 Descending Denver Center
Thu 10:43:30 PM 39.8408 -104.7506 91° East 135 155 5,700 -634 Descending Denver Center
Thu 10:44:32 PM 39.8414 -104.7053 89° East 132 152 5,300 -387 Descending Denver Center
Thu 10:46:00 PM 39.8500 -104.6667 North  Level FlightAware Approximate
Thu 10:53:00 PM 39.8617 -104.6732 North  Level Estimated
Thu 10:54:00 PM 39.8617 -104.6732 North  Level Estimated
Thu 10:55:00 PM 39.8617 -104.6732 North  Level Estimated

Login

Don't have an account? Register now (free) for customized features, flight alerts, and more!